Time;durP1;ratioP1;P1;durP2;ratioP2;P2;SDS_P1;SDS_P2;PMS_P1;PMS_P2;Temp;Humidity;BMP_temperature;BMP_pressure;BME280_temperature;BME280_humidity;BME280_pressure;Samples;Min_cycle;Max_cycle;Signal;HPM_P1;HPM_P2
2021/05/20 00:01:02;;;;;;;14.38;12.20;;;9.90;81.10;;;;;;5029067;28;20172;-75
2021/05/20 00:03:28;;;;;;;15.35;12.55;;;9.90;81.10;;;;;;5011446;28;20601;-77
2021/05/20 00:05:54;;;;;;;13.82;12.40;;;9.90;81.30;;;;;;5012736;28;20048;-75
2021/05/20 00:08:20;;;;;;;13.93;12.45;;;9.90;81.40;;;;;;5013089;28;20370;-75
2021/05/20 00:10:46;;;;;;;14.55;12.88;;;9.90;81.50;;;;;;5029782;28;20056;-74
2021/05/20 00:13:11;;;;;;;14.77;12.60;;;9.90;81.50;;;;;;5013243;28;20049;-75
2021/05/20 00:15:37;;;;;;;14.00;12.57;;;9.80;81.40;;;;;;5012445;28;20343;-75
2021/05/20 00:18:04;;;;;;;15.57;12.73;;;9.80;81.30;;;;;;5029537;28;20120;-75
2021/05/20 00:20:29;;;;;;;14.32;12.82;;;9.80;81.30;;;;;;5029383;28;20058;-76
2021/05/20 00:22:55;;;;;;;14.18;12.40;;;9.80;81.30;;;;;;5031646;28;20049;-75
2021/05/20 00:25:21;;;;;;;14.27;12.57;;;9.80;81.30;;;;;;5050574;28;20478;-75
2021/05/20 00:27:47;;;;;;;15.75;12.88;;;9.80;81.40;;;;;;5037210;28;20474;-75
2021/05/20 00:30:13;;;;;;;16.17;13.65;;;9.80;81.50;;;;;;5028605;28;20491;-75
2021/05/20 00:32:38;;;;;;;15.35;13.70;;;9.70;81.50;;;;;;5027815;28;20374;-74
2021/05/20 00:35:05;;;;;;;14.25;12.75;;;9.70;81.50;;;;;;5050541;28;20037;-74
2021/05/20 00:37:31;;;;;;;16.35;13.57;;;9.70;81.50;;;;;;5015418;28;20098;-74
2021/05/20 00:39:58;;;;;;;14.73;13.23;;;9.70;81.70;;;;;;5032098;28;20045;-74
2021/05/20 00:42:27;;;;;;;19.45;14.75;;;9.70;81.60;;;;;;5049377;28;20102;-74
2021/05/20 00:44:58;;;;;;;28.80;18.58;;;9.70;81.60;;;;;;5032162;28;20041;-73
2021/05/20 00:47:32;;;;;;;21.83;17.08;;;9.60;81.60;;;;;;5054085;28;20092;-74
2021/05/20 00:50:03;;;;;;;19.77;15.95;;;9.60;82.40;;;;;;5052377;28;20401;-74
2021/05/20 00:52:29;;;;;;;20.70;15.98;;;9.60;81.80;;;;;;5020186;28;20049;-74
2021/05/20 00:54:56;;;;;;;18.98;15.20;;;9.60;81.70;;;;;;5034998;28;20672;-73
2021/05/20 00:57:25;;;;;;;18.35;15.20;;;9.60;81.80;;;;;;5035953;28;20045;-73
2021/05/20 00:59:51;;;;;;;15.10;13.57;;;9.60;81.80;;;;;;5018721;28;20044;-74
2021/05/20 01:02:17;;;;;;;14.85;13.38;;;9.60;81.80;;;;;;5019701;28;20045;-73
2021/05/20 01:04:43;;;;;;;15.30;13.38;;;9.60;81.80;;;;;;5051815;28;20133;-74
2021/05/20 01:07:08;;;;;;;15.88;13.23;;;9.50;81.70;;;;;;5051393;28;20128;-75
2021/05/20 01:09:37;;;;;;;16.02;13.40;;;9.50;81.70;;;;;;5035420;28;20075;-75
2021/05/20 01:12:06;;;;;;;14.77;12.65;;;9.50;81.60;;;;;;5051828;28;20052;-74
2021/05/20 01:14:42;;;;;;;14.95;13.43;;;9.50;81.50;;;;;;5052519;28;20045;-72
2021/05/20 01:17:08;;;;;;;15.80;14.10;;;9.40;81.60;;;;;;5035537;28;20137;-73
2021/05/20 01:19:37;;;;;;;14.88;13.38;;;9.40;81.70;;;;;;5019377;28;20140;-74
2021/05/20 01:22:04;;;;;;;14.70;13.15;;;9.40;81.70;;;;;;5051417;28;20128;-74
2021/05/20 01:24:29;;;;;;;15.57;13.43;;;9.40;81.70;;;;;;5052293;28;20465;-74
2021/05/20 01:26:55;;;;;;;15.07;13.40;;;9.40;82.40;;;;;;5034756;28;20121;-74
2021/05/20 01:29:21;;;;;;;15.07;13.45;;;9.40;81.70;;;;;;5051880;28;20501;-74
2021/05/20 01:31:47;;;;;;;16.48;14.70;;;9.40;81.80;;;;;;5034367;28;20071;-74
2021/05/20 01:34:13;;;;;;;17.95;14.73;;;9.40;82.00;;;;;;5051616;28;20056;-74
2021/05/20 01:36:39;;;;;;;18.60;15.82;;;9.30;82.00;;;;;;5051874;28;20037;-73
2021/05/20 01:39:05;;;;;;;17.65;15.65;;;9.30;81.90;;;;;;5034487;28;20068;-73
2021/05/20 01:41:30;;;;;;;18.95;15.95;;;9.30;82.00;;;;;;5052987;28;20547;-73
2021/05/20 01:43:57;;;;;;;21.42;17.00;;;9.30;82.00;;;;;;5034120;28;20468;-74
2021/05/20 01:46:24;;;;;;;19.48;16.55;;;9.30;82.00;;;;;;5052749;28;20207;-74
2021/05/20 01:48:50;;;;;;;28.52;19.20;;;9.30;82.10;;;;;;5034391;28;20413;-74
2021/05/20 01:51:17;;;;;;;26.40;19.88;;;9.30;82.00;;;;;;5035077;28;20110;-75
2021/05/20 01:53:44;;;;;;;26.48;19.58;;;9.30;82.00;;;;;;5034970;28;20120;-75
2021/05/20 01:56:10;;;;;;;25.83;18.60;;;9.30;82.10;;;;;;5050680;28;20045;-74
2021/05/20 01:58:36;;;;;;;24.08;18.98;;;9.20;82.00;;;;;;5034837;28;20796;-75
2021/05/20 02:01:03;;;;;;;24.83;18.80;;;9.20;82.00;;;;;;5034224;28;20135;-75
2021/05/20 02:03:29;;;;;;;22.90;18.58;;;9.20;81.90;;;;;;5034884;28;20045;-75
2021/05/20 02:05:57;;;;;;;23.05;18.13;;;9.20;82.20;;;;;;5034034;28;20049;-75
2021/05/20 02:08:25;;;;;;;20.80;17.80;;;9.20;82.30;;;;;;5051118;28;20130;-75
2021/05/20 02:10:51;;;;;;;23.30;19.13;;;9.20;82.30;;;;;;5016655;28;20049;-73
2021/05/20 02:13:17;;;;;;;21.13;18.85;;;9.20;82.30;;;;;;5034566;28;20144;-74
2021/05/20 02:15:43;;;;;;;22.15;18.00;;;9.20;82.30;;;;;;5034840;28;20044;-75
2021/05/20 02:18:09;;;;;;;22.73;19.17;;;9.10;82.00;;;;;;5050370;28;20616;-73
2021/05/20 02:20:35;;;;;;;21.38;17.50;;;9.10;82.00;;;;;;5047114;28;20453;-74
2021/05/20 02:23:01;;;;;;;22.27;18.00;;;9.10;82.10;;;;;;5035548;28;20048;-74
2021/05/20 02:25:27;;;;;;;21.60;18.48;;;9.10;82.20;;;;;;5017290;28;20500;-74
2021/05/20 02:27:52;;;;;;;23.08;18.98;;;9.10;82.30;;;;;;5033811;28;20069;-76
2021/05/20 02:30:19;;;;;;;23.05;19.50;;;9.10;82.50;;;;;;5034358;28;20049;-74
2021/05/20 02:32:44;;;;;;;23.55;18.42;;;9.10;82.30;;;;;;5033998;28;20045;-75
2021/05/20 02:35:11;;;;;;;24.10;20.77;;;9.10;82.40;;;;;;5033598;28;20139;-74
2021/05/20 02:37:38;;;;;;;23.38;19.55;;;9.10;82.50;;;;;;5050772;28;20072;-75
2021/05/20 02:40:04;;;;;;;23.17;19.08;;;9.10;82.40;;;;;;5033244;28;20064;-74
2021/05/20 02:42:30;;;;;;;25.48;20.25;;;9.10;82.30;;;;;;5017733;28;20053;-73
2021/05/20 02:44:57;;;;;;;29.35;21.88;;;9.00;82.30;;;;;;5032844;28;20036;-74
2021/05/20 02:47:22;;;;;;;31.25;22.30;;;9.00;82.20;;;;;;5051828;28;20148;-73
2021/05/20 02:49:48;;;;;;;26.42;20.65;;;9.00;82.20;;;;;;5038534;28;20490;-74
2021/05/20 02:52:14;;;;;;;26.98;21.17;;;9.00;82.20;;;;;;5031153;28;20647;-74
2021/05/20 02:54:40;;;;;;;24.77;20.65;;;9.00;82.20;;;;;;5013648;28;20429;-74
2021/05/20 02:57:07;;;;;;;25.25;20.77;;;9.00;82.30;;;;;;5012781;28;20068;-74
2021/05/20 02:59:33;;;;;;;26.35;20.85;;;9.00;82.30;;;;;;5014085;28;20037;-74
2021/05/20 03:02:05;;;;;;;26.52;21.10;;;9.00;82.40;;;;;;5013333;28;20051;-76
2021/05/20 03:04:34;;;;;;;26.98;21.38;;;9.00;82.50;;;;;;5014376;28;20065;-74
2021/05/20 03:07:00;;;;;;;29.23;21.42;;;9.00;82.60;;;;;;5030790;28;20041;-75
2021/05/20 03:09:26;;;;;;;29.75;21.95;;;8.90;82.60;;;;;;5013167;28;20041;-73
2021/05/20 03:11:52;;;;;;;34.25;23.67;;;9.00;82.70;;;;;;5013649;28;20052;-74
2021/05/20 03:14:18;;;;;;;32.80;25.25;;;9.00;82.80;;;;;;5012301;28;20068;-74
2021/05/20 03:16:44;;;;;;;33.08;25.30;;;9.00;82.80;;;;;;5012888;28;20073;-73
2021/05/20 03:19:11;;;;;;;31.95;24.40;;;9.00;83.00;;;;;;5013141;28;20060;-74
2021/05/20 03:21:37;;;;;;;36.55;26.40;;;9.00;83.00;;;;;;5013174;28;20049;-74
2021/05/20 03:24:03;;;;;;;32.03;24.85;;;9.10;83.20;;;;;;5030434;28;20406;-75
2021/05/20 03:26:28;;;;;;;32.22;24.90;;;9.10;83.20;;;;;;5031463;28;20081;-74
2021/05/20 03:28:54;;;;;;;32.00;24.17;;;9.10;83.30;;;;;;5031324;28;20482;-74
2021/05/20 03:31:20;;;;;;;32.33;25.08;;;9.10;83.30;;;;;;5029097;28;20127;-74
2021/05/20 03:33:46;;;;;;;31.35;24.27;;;9.10;83.40;;;;;;5029467;28;20057;-74
2021/05/20 03:36:13;;;;;;;32.80;25.40;;;9.10;83.40;;;;;;5029396;28;20041;-73
2021/05/20 03:38:39;;;;;;;31.08;23.90;;;9.10;83.40;;;;;;5030100;28;20445;-73
2021/05/20 03:41:05;;;;;;;31.98;25.15;;;9.20;83.50;;;;;;5029081;28;20114;-76
2021/05/20 03:43:37;;;;;;;31.70;24.33;;;9.10;83.40;;;;;;5013277;28;20049;-73
2021/05/20 03:46:04;;;;;;;29.77;23.80;;;9.10;83.70;;;;;;5013319;28;20104;-75
2021/05/20 03:48:30;;;;;;;28.58;23.90;;;9.20;83.70;;;;;;4997223;28;20041;-73
2021/05/20 03:50:58;;;;;;;29.42;24.17;;;9.20;83.60;;;;;;5013191;28;20045;-74
2021/05/20 03:53:30;;;;;;;26.65;22.63;;;9.20;83.70;;;;;;5029066;28;20625;-73
2021/05/20 03:55:59;;;;;;;28.13;23.83;;;9.20;83.70;;;;;;5013964;28;20060;-74
2021/05/20 03:58:25;;;;;;;30.20;24.45;;;9.20;83.60;;;;;;5012385;28;20279;-74
2021/05/20 04:00:51;;;;;;;29.83;23.08;;;9.20;83.70;;;;;;5029857;28;20096;-73
2021/05/20 04:03:26;;;;;;;29.98;24.75;;;9.20;83.70;;;;;;5012378;28;20053;-74
2021/05/20 04:05:53;;;;;;;28.67;23.23;;;9.20;83.70;;;;;;5029816;28;20041;-74
2021/05/20 04:08:19;;;;;;;29.88;23.35;;;9.20;83.70;;;;;;5030312;28;20497;-73
2021/05/20 04:10:44;;;;;;;30.60;24.65;;;9.20;83.70;;;;;;4996951;28;20072;-73
2021/05/20 04:13:10;;;;;;;29.67;24.63;;;9.20;83.80;;;;;;5012677;28;20056;-75
2021/05/20 04:15:36;;;;;;;30.95;25.67;;;9.20;83.70;;;;;;5013486;28;20049;-72
2021/05/20 04:18:02;;;;;;;29.90;24.17;;;9.20;83.60;;;;;;5029136;28;20402;-73
2021/05/20 04:20:27;;;;;;;29.50;25.27;;;9.20;83.80;;;;;;5030106;28;20106;-74
2021/05/20 04:22:53;;;;;;;28.30;23.98;;;9.20;83.80;;;;;;5033027;28;20042;-73
2021/05/20 04:25:19;;;;;;;31.80;25.17;;;9.30;83.80;;;;;;5015568;28;20064;-74
2021/05/20 04:27:45;;;;;;;29.95;24.30;;;9.20;83.70;;;;;;5016868;28;20042;-73
2021/05/20 04:30:11;;;;;;;30.40;25.10;;;9.30;83.80;;;;;;5033085;28;20049;-75
2021/05/20 04:32:37;;;;;;;31.50;24.77;;;9.20;83.90;;;;;;5015935;28;20052;-74
2021/05/20 04:35:03;;;;;;;31.25;24.80;;;9.30;83.80;;;;;;5015646;28;20059;-73
2021/05/20 04:37:29;;;;;;;31.90;25.35;;;9.30;83.80;;;;;;5033534;28;20064;-73
2021/05/20 04:39:54;;;;;;;31.70;25.85;;;9.30;83.80;;;;;;5034147;28;20049;-73
2021/05/20 04:42:20;;;;;;;33.67;26.08;;;9.30;83.90;;;;;;5015752;28;20100;-73
2021/05/20 04:44:46;;;;;;;31.20;25.73;;;9.30;83.80;;;;;;5034033;28;20055;-73
2021/05/20 04:47:12;;;;;;;36.03;27.52;;;9.30;84.00;;;;;;5032618;28;20081;-74
2021/05/20 04:49:38;;;;;;;32.63;26.63;;;9.30;84.00;;;;;;5016076;28;20463;-73
2021/05/20 04:52:04;;;;;;;35.13;28.83;;;9.30;84.00;;;;;;5032984;28;20463;-73
2021/05/20 04:54:30;;;;;;;33.70;27.27;;;9.30;84.00;;;;;;5014637;28;20041;-74
2021/05/20 04:56:56;;;;;;;35.75;27.60;;;9.30;84.00;;;;;;5031633;28;20358;-75
2021/05/20 04:59:21;;;;;;;36.65;28.95;;;9.40;84.10;;;;;;5031926;28;20049;-75
2021/05/20 05:01:47;;;;;;;39.30;29.45;;;9.40;84.00;;;;;;5016054;28;20049;-74
2021/05/20 05:04:13;;;;;;;40.90;30.58;;;9.40;84.10;;;;;;5019038;28;20059;-73
2021/05/20 05:06:39;;;;;;;38.78;29.08;;;9.40;84.10;;;;;;5035398;28;20056;-73
2021/05/20 05:09:04;;;;;;;39.65;30.27;;;9.40;84.10;;;;;;5035860;28;20037;-74
2021/05/20 05:11:31;;;;;;;38.50;29.73;;;9.40;84.10;;;;;;5035454;28;20140;-74
2021/05/20 05:13:57;;;;;;;41.83;31.10;;;9.50;84.20;;;;;;5053752;28;20214;-74
2021/05/20 05:16:23;;;;;;;43.75;32.72;;;9.50;84.20;;;;;;5035118;28;20041;-74
2021/05/20 05:18:48;;;;;;;42.58;32.03;;;9.50;84.20;;;;;;5035796;28;20095;-74
2021/05/20 05:21:14;;;;;;;46.80;33.25;;;9.50;84.10;;;;;;5035723;28;20049;-73
2021/05/20 05:23:43;;;;;;;46.53;33.70;;;9.50;84.20;;;;;;5051571;28;20048;-73
2021/05/20 05:26:08;;;;;;;45.70;33.67;;;9.50;84.10;;;;;;5018332;28;20145;-74
2021/05/20 05:28:34;;;;;;;46.95;34.03;;;9.60;84.20;;;;;;5034944;28;20158;-74
2021/05/20 05:31:00;;;;;;;47.47;33.95;;;9.60;84.20;;;;;;5034946;28;20037;-74
2021/05/20 05:33:25;;;;;;;49.50;34.65;;;9.60;84.10;;;;;;5030876;28;20061;-73
2021/05/20 05:35:51;;;;;;;45.65;32.58;;;9.70;84.30;;;;;;5048682;28;20049;-73
2021/05/20 05:38:17;;;;;;;46.25;33.85;;;9.70;84.40;;;;;;5026886;28;20419;-72
2021/05/20 05:40:43;;;;;;;45.13;32.63;;;9.70;84.40;;;;;;5002674;28;20380;-74
2021/05/20 05:43:08;;;;;;;46.00;33.17;;;9.70;84.50;;;;;;5040020;28;20113;-73
2021/05/20 05:45:34;;;;;;;44.42;31.95;;;9.80;84.50;;;;;;5022676;28;20418;-73
2021/05/20 05:48:05;;;;;;;43.95;32.17;;;9.80;84.40;;;;;;5019380;28;20067;-74
2021/05/20 05:50:30;;;;;;;45.30;32.75;;;9.80;84.20;;;;;;5018821;28;20351;-74
2021/05/20 05:52:56;;;;;;;44.58;30.92;;;9.90;84.30;;;;;;5046773;28;20052;-73
2021/05/20 05:55:22;;;;;;;43.50;33.10;;;9.90;84.20;;;;;;5047605;28;20057;-74
2021/05/20 05:57:48;;;;;;;42.53;32.38;;;9.90;84.00;;;;;;5020866;28;20152;-74
2021/05/20 06:00:14;;;;;;;43.72;32.33;;;10.00;84.10;;;;;;5003101;28;20048;-74
2021/05/20 06:02:43;;;;;;;48.35;34.20;;;10.00;84.10;;;;;;5026373;28;20128;-72
2021/05/20 06:05:09;;;;;;;42.53;32.92;;;10.00;84.10;;;;;;5005913;28;20517;-74
2021/05/20 06:07:35;;;;;;;47.85;34.40;;;10.00;84.40;;;;;;5001063;28;20088;-73
2021/05/20 06:10:05;;;;;;;42.83;32.65;;;10.10;84.40;;;;;;4995576;28;20042;-73
2021/05/20 06:12:30;;;;;;;48.08;34.83;;;10.10;84.30;;;;;;5025004;28;20136;-75
2021/05/20 06:14:56;;;;;;;50.15;34.10;;;10.20;84.30;;;;;;5012705;28;20053;-74
2021/05/20 06:17:23;;;;;;;52.55;36.22;;;10.20;84.40;;;;;;5028357;28;20121;-74
2021/05/20 06:19:48;;;;;;;52.60;35.97;;;10.20;84.40;;;;;;5027583;28;20185;-73
2021/05/20 06:22:14;;;;;;;52.90;36.22;;;10.30;84.20;;;;;;5025945;28;20061;-73
2021/05/20 06:24:42;;;;;;;53.03;37.30;;;10.40;84.10;;;;;;5028420;28;20102;-73
2021/05/20 06:27:08;;;;;;;57.70;38.33;;;10.40;84.40;;;;;;5021746;28;20041;-73
2021/05/20 06:29:34;;;;;;;56.50;39.30;;;10.40;84.00;;;;;;5019142;28;20061;-74
2021/05/20 06:31:59;;;;;;;58.30;40.28;;;10.50;84.20;;;;;;5020609;28;20088;-74
2021/05/20 06:34:25;;;;;;;60.45;40.65;;;10.50;84.40;;;;;;5020472;28;20061;-73
2021/05/20 06:36:51;;;;;;;61.72;41.97;;;10.60;84.60;;;;;;5024395;28;20042;-72
2021/05/20 06:39:17;;;;;;;66.28;42.83;;;10.60;84.70;;;;;;5027193;28;20111;-73
2021/05/20 06:41:44;;;;;;;67.18;44.47;;;10.70;84.90;;;;;;5011898;28;20045;-73
2021/05/20 06:44:10;;;;;;;69.90;46.63;;;10.70;84.90;;;;;;5012814;28;20038;-73
2021/05/20 06:46:36;;;;;;;66.40;43.83;;;10.80;85.10;;;;;;5002887;28;20171;-75
2021/05/20 06:49:03;;;;;;;70.68;45.17;;;10.80;84.80;;;;;;5015489;28;20128;-73
2021/05/20 06:51:30;;;;;;;71.53;48.13;;;10.90;84.60;;;;;;4999637;28;20046;-73
2021/05/20 06:53:56;;;;;;;69.32;45.53;;;11.00;84.70;;;;;;5013355;28;20052;-76
2021/05/20 06:56:24;;;;;;;25.67;17.17;;;11.10;84.80;;;;;;5028130;28;20041;-76
2021/05/20 07:01:34;;;;;;;59.97;39.58;;;11.60;85.00;;;;;;4994811;28;20143;-73
2021/05/20 07:04:00;;;;;;;62.95;43.70;;;11.70;84.10;;;;;;4977640;28;20037;-72
2021/05/20 07:06:27;;;;;;;62.67;41.28;;;11.80;83.80;;;;;;5025091;28;20128;-76
2021/05/20 07:08:53;;;;;;;68.07;44.42;;;11.80;83.60;;;;;;5002724;28;20045;-75
2021/05/20 07:11:18;;;;;;;66.18;44.78;;;11.80;83.40;;;;;;5005898;28;20091;-74
2021/05/20 07:13:44;;;;;;;66.93;45.30;;;11.80;83.60;;;;;;5002269;28;20093;-74
2021/05/20 07:16:10;;;;;;;63.42;42.58;;;11.80;83.70;;;;;;5002044;28;20437;-73
2021/05/20 07:18:36;;;;;;;61.45;42.13;;;11.80;83.70;;;;;;5011663;28;20041;-73
2021/05/20 07:21:02;;;;;;;63.40;43.53;;;11.90;83.80;;;;;;4999446;28;20257;-73
2021/05/20 07:23:28;;;;;;;60.90;41.92;;;11.90;83.50;;;;;;5014068;28;20107;-73
2021/05/20 07:25:54;;;;;;;61.92;42.53;;;11.90;83.30;;;;;;4996157;28;20115;-73
2021/05/20 07:28:22;;;;;;;60.15;44.95;;;11.90;83.30;;;;;;4996798;28;20037;-73
2021/05/20 07:30:48;;;;;;;63.22;42.33;;;11.90;83.20;;;;;;4981384;28;20132;-75
2021/05/20 07:33:14;;;;;;;64.07;44.00;;;12.00;83.20;;;;;;5015300;28;20141;-71
2021/05/20 07:35:40;;;;;;;58.65;42.50;;;12.00;83.20;;;;;;5033805;28;20041;-72
2021/05/20 07:38:05;;;;;;;64.68;43.30;;;12.00;83.20;;;;;;5016314;28;20512;-73
2021/05/20 07:40:31;;;;;;;58.83;40.90;;;12.00;83.20;;;;;;5000650;28;20044;-73
2021/05/20 07:42:57;;;;;;;57.22;41.22;;;12.10;83.20;;;;;;5016224;28;20045;-73
2021/05/20 07:45:23;;;;;;;61.30;42.72;;;12.10;83.20;;;;;;5033369;28;20045;-73
2021/05/20 07:47:49;;;;;;;58.90;41.22;;;12.20;83.20;;;;;;5000369;28;20401;-75
2021/05/20 07:50:15;;;;;;;62.08;41.08;;;12.20;83.20;;;;;;5000086;28;20075;-74
2021/05/20 07:52:41;;;;;;;60.15;41.03;;;12.30;83.30;;;;;;4984164;28;20064;-74
2021/05/20 07:55:08;;;;;;;58.60;40.35;;;12.30;83.30;;;;;;5001905;28;20261;-73
2021/05/20 07:57:33;;;;;;;55.83;38.35;;;12.40;83.10;;;;;;5020356;28;20044;-72
2021/05/20 07:59:59;;;;;;;55.28;39.42;;;12.40;82.80;;;;;;5020282;28;20171;-72
2021/05/20 08:04:56;;;;;;;54.17;37.88;;;12.50;82.30;;;;;;5020946;28;20072;-72
2021/05/20 08:12:35;;;;;;;50.70;37.20;;;12.70;82.10;;;;;;5039351;28;20041;-73
2021/05/20 08:15:01;;;;;;;52.85;36.85;;;12.70;82.10;;;;;;5019484;28;20124;-73
2021/05/20 08:17:27;;;;;;;51.92;37.63;;;12.80;82.00;;;;;;5036933;28;20045;-73
2021/05/20 08:19:53;;;;;;;54.08;36.60;;;12.80;81.80;;;;;;5054472;28;20052;-75
2021/05/20 08:22:19;;;;;;;48.35;34.80;;;12.90;81.50;;;;;;5003339;28;20048;-74
2021/05/20 08:24:44;;;;;;;47.80;34.42;;;12.90;81.30;;;;;;5020261;28;20044;-74
2021/05/20 08:27:11;;;;;;;47.67;35.28;;;13.00;81.30;;;;;;5035906;28;20060;-74
2021/05/20 08:29:37;;;;;;;47.15;34.97;;;13.00;81.00;;;;;;5036260;28;20121;-74
2021/05/20 08:32:03;;;;;;;49.88;34.42;;;13.00;80.90;;;;;;5018362;28;20132;-73
2021/05/20 08:34:29;;;;;;;47.55;34.63;;;13.10;80.70;;;;;;5019658;28;20132;-74
2021/05/20 08:36:55;;;;;;;49.30;35.67;;;13.10;80.50;;;;;;5035918;28;20116;-73
2021/05/20 08:39:21;;;;;;;46.72;34.17;;;13.00;80.30;;;;;;5034855;28;20040;-74
2021/05/20 08:41:48;;;;;;;47.83;32.83;;;13.10;80.40;;;;;;5019832;28;20462;-73
2021/05/20 08:44:16;;;;;;;43.20;31.80;;;13.10;80.30;;;;;;5052945;28;20056;-73
2021/05/20 08:46:45;;;;;;;47.70;34.50;;;13.20;80.20;;;;;;5020292;28;20128;-74
2021/05/20 08:49:17;;;;;;;42.85;32.45;;;13.20;80.00;;;;;;5018805;28;20400;-73
2021/05/20 08:51:44;;;;;;;;;;;13.30;80.30;;;;;;5054312;28;20045;-73
2021/05/20 08:54:10;;;;;;;42.10;31.80;;;13.40;80.90;;;;;;5034808;28;19924;-74
2021/05/20 08:56:36;;;;;;;41.92;31.38;;;13.50;81.10;;;;;;5003172;28;20049;-74
2021/05/20 08:59:02;;;;;;;46.45;34.05;;;13.50;80.60;;;;;;5019033;28;20443;-75
2021/05/20 09:01:41;;;;;;;49.35;33.38;;;13.60;80.60;;;;;;5018153;28;20103;-74
2021/05/20 09:04:07;;;;;;;44.25;32.03;;;13.80;80.80;;;;;;5033691;28;20604;-73
2021/05/20 09:06:59;;;;;;;38.78;28.73;;;13.80;80.70;;;;;;5052492;28;20120;-74
2021/05/20 09:09:32;;;;;;;38.97;28.95;;;13.90;80.50;;;;;;5052521;28;20132;-74
2021/05/20 09:11:58;;;;;;;35.42;25.17;;;14.00;80.50;;;;;;5020112;28;20539;-74
2021/05/20 09:14:31;;;;;;;30.20;24.38;;;14.10;80.10;;;;;;5018212;28;20505;-74
2021/05/20 09:17:27;;;;;;;31.65;23.55;;;14.20;79.50;;;;;;5035824;28;20041;-73
2021/05/20 09:19:59;;;;;;;32.97;21.40;;;14.30;79.40;;;;;;5002263;28;20079;-74
2021/05/20 09:22:25;;;;;;;31.73;22.63;;;14.40;78.80;;;;;;5017567;28;20182;-74
2021/05/20 09:24:56;;;;;;;27.25;21.70;;;14.60;78.60;;;;;;5035294;28;20076;-73
2021/05/20 09:27:31;;;;;;;25.58;19.90;;;14.70;77.60;;;;;;5018329;28;20099;-73
2021/05/20 09:30:09;;;;;;;26.25;19.77;;;14.70;77.40;;;;;;5035190;28;20115;-74
2021/05/20 09:32:36;;;;;;;26.88;19.42;;;14.70;76.50;;;;;;5053007;28;20484;-74
2021/05/20 09:35:02;;;;;;;24.65;18.42;;;14.70;76.20;;;;;;5001761;28;20052;-73
2021/05/20 09:37:33;;;;;;;24.83;18.77;;;14.80;75.90;;;;;;5033326;28;20176;-74
2021/05/20 09:40:04;;;;;;;22.10;17.85;;;14.80;75.60;;;;;;5003411;28;20482;-74
2021/05/20 09:42:30;;;;;;;23.10;18.17;;;14.80;75.30;;;;;;5034270;28;20167;-74
2021/05/20 09:45:08;;;;;;;28.05;22.35;;;14.80;75.30;;;;;;5052971;28;20071;-74
2021/05/20 09:47:34;;;;;;;31.73;23.27;;;14.80;75.10;;;;;;5034575;28;20084;-74
2021/05/20 09:50:07;;;;;;;31.10;23.17;;;14.80;75.00;;;;;;5053056;28;20072;-74
2021/05/20 09:52:33;;;;;;;30.05;24.70;;;14.80;74.70;;;;;;5014804;28;20422;-76
2021/05/20 09:55:00;;;;;;;32.55;24.23;;;14.80;74.50;;;;;;5008777;28;20041;-76
2021/05/20 09:57:33;;;;;;;37.42;28.10;;;14.90;74.40;;;;;;5018589;28;20041;-75
2021/05/20 10:00:13;;;;;;;25.98;16.40;;;14.90;74.20;;;;;;5023925;28;20107;-74
2021/05/20 10:02:40;;;;;;;25.75;17.77;;;15.10;74.30;;;;;;5042881;28;20683;-84
2021/05/20 10:05:22;;;;;;;22.23;16.63;;;15.30;73.90;;;;;;5018698;28;20041;-77
2021/05/20 10:07:48;;;;;;;17.65;14.13;;;15.70;72.50;;;;;;5018804;28;20033;-76
2021/05/20 10:10:14;;;;;;;21.27;15.73;;;15.90;72.30;;;;;;5016106;28;20406;-75
2021/05/20 10:12:44;;;;;;;21.15;15.82;;;16.00;71.20;;;;;;4999038;28;20095;-78
2021/05/20 10:15:12;;;;;;;20.33;15.80;;;16.30;70.60;;;;;;5006534;28;20045;-76
2021/05/20 10:17:40;;;;;;;20.58;15.35;;;16.50;69.90;;;;;;4999325;28;20100;-80
2021/05/20 10:20:07;;;;;;;21.27;15.50;;;16.60;69.30;;;;;;5038870;28;20037;-77
2021/05/20 10:22:36;;;;;;;23.80;18.63;;;16.70;68.70;;;;;;5022393;28;20064;-78
2021/05/20 10:25:03;;;;;;;23.83;16.70;;;16.90;67.70;;;;;;5031943;28;20053;-77
2021/05/20 10:27:29;;;;;;;26.92;20.25;;;17.00;67.20;;;;;;5014969;28;20041;-77
2021/05/20 10:29:55;;;;;;;27.88;20.60;;;17.00;66.50;;;;;;5013631;28;20044;-77
2021/05/20 10:32:21;;;;;;;27.35;20.85;;;17.10;66.00;;;;;;5006952;28;20093;-80
2021/05/20 10:35:08;;;;;;;27.10;20.40;;;17.20;66.00;;;;;;5006433;28;20444;-77
2021/05/20 10:37:38;;;;;;;28.50;22.52;;;17.30;65.80;;;;;;5034902;28;20120;-77
2021/05/20 10:40:07;;;;;;;30.80;23.83;;;17.40;65.90;;;;;;4997088;28;20052;-78
2021/05/20 10:42:46;;;;;;;31.38;23.75;;;17.50;65.80;;;;;;5019155;28;20033;-77
2021/05/20 10:45:22;;;;;;;26.92;18.42;;;17.60;64.80;;;;;;5024815;28;20067;-79
2021/05/20 10:48:03;;;;;;;19.77;14.73;;;17.70;64.70;;;;;;5044651;28;20135;-76
2021/05/20 10:50:54;;;;;;;16.08;13.63;;;17.80;64.00;;;;;;5027144;28;20041;-79
2021/05/20 10:53:39;;;;;;;25.73;16.60;;;18.00;63.50;;;;;;5031659;28;20065;-82
2021/05/20 10:56:05;;;;;;;22.60;16.08;;;18.10;62.10;;;;;;5038842;28;20110;-80
2021/05/20 10:58:32;;;;;;;22.70;16.20;;;18.10;62.50;;;;;;5009308;28;20045;-79
2021/05/20 11:00:58;;;;;;;21.95;16.10;;;18.00;61.40;;;;;;5034307;28;20069;-77
2021/05/20 11:03:50;;;;;;;22.17;17.75;;;18.00;61.70;;;;;;5046638;28;20079;-79
2021/05/20 11:06:17;;;;;;;23.23;17.58;;;18.10;59.90;;;;;;5006659;28;20061;-78
2021/05/20 11:08:46;;;;;;;24.98;18.73;;;18.20;61.80;;;;;;4997621;28;20115;-77
2021/05/20 11:11:30;;;;;;;25.85;17.40;;;18.30;60.60;;;;;;5032378;28;20111;-75
2021/05/20 11:13:59;;;;;;;29.67;19.42;;;18.50;60.10;;;;;;5014162;28;20405;-78
2021/05/20 11:16:35;;;;;;;33.45;19.73;;;18.70;59.80;;;;;;5014475;28;20042;-76
2021/05/20 11:19:23;;;;;;;29.70;19.55;;;19.00;59.20;;;;;;5015121;28;20048;-78
2021/05/20 11:22:05;;;;;;;29.35;20.33;;;19.20;57.60;;;;;;5032004;28;20034;-78
2021/05/20 11:24:31;;;;;;;30.77;19.95;;;19.40;57.50;;;;;;5013813;28;20045;-79
2021/05/20 11:26:58;;;;;;;29.88;19.25;;;19.50;57.90;;;;;;4998339;28;20069;-78
2021/05/20 11:29:25;;;;;;;31.33;20.38;;;19.60;57.70;;;;;;5014207;28;20126;-82
2021/05/20 11:32:15;;;;;;;27.13;19.08;;;19.50;58.10;;;;;;4997828;28;20859;-83
2021/05/20 11:37:21;;;;;;;25.85;16.30;;;19.90;57.70;;;;;;5015644;28;20425;-81
2021/05/20 11:39:55;;;;;;;25.42;17.45;;;20.20;56.60;;;;;;4989497;28;20061;-80
2021/05/20 11:42:22;;;;;;;21.98;16.13;;;20.20;56.40;;;;;;5030284;28;20041;-77
2021/05/20 11:44:50;;;;;;;15.50;11.50;;;20.20;56.00;;;;;;5015076;28;20041;-76
2021/05/20 11:47:16;;;;;;;17.38;11.45;;;20.20;56.10;;;;;;5029526;28;20360;-75
2021/05/20 11:49:44;;;;;;;14.57;10.20;;;20.20;56.40;;;;;;5029489;28;20055;-77
2021/05/20 11:52:11;;;;;;;14.98;11.32;;;20.30;56.60;;;;;;4997381;28;20055;-74
2021/05/20 11:54:45;;;;;;;16.38;11.50;;;20.40;56.50;;;;;;5014586;28;20257;-75
2021/05/20 11:57:11;;;;;;;15.35;12.60;;;20.40;56.40;;;;;;4997347;28;20497;-74
2021/05/20 11:59:37;;;;;;;17.90;12.15;;;20.40;56.60;;;;;;4995487;28;20050;-75
2021/05/20 12:02:12;;;;;;;18.13;11.70;;;20.30;57.00;;;;;;5015708;28;20124;-76
2021/05/20 12:04:41;;;;;;;21.45;14.52;;;20.20;56.90;;;;;;5027750;28;20042;-77
2021/05/20 12:07:07;;;;;;;23.92;16.02;;;20.10;56.40;;;;;;5012585;28;20037;-74
2021/05/20 12:09:33;;;;;;;22.15;15.55;;;20.00;56.30;;;;;;5015056;28;20409;-76
2021/05/20 12:12:19;;;;;;;20.17;14.57;;;20.00;55.80;;;;;;5028216;28;20052;-73
2021/05/20 12:14:45;;;;;;;18.77;12.55;;;20.10;55.20;;;;;;5011978;28;20076;-75
2021/05/20 12:17:14;;;;;;;18.80;13.73;;;20.10;55.50;;;;;;5028915;28;20402;-77
2021/05/20 12:19:45;;;;;;;18.55;11.95;;;20.30;55.40;;;;;;5014475;28;20049;-79
2021/05/20 12:22:18;;;;;;;18.98;12.57;;;20.50;55.20;;;;;;5012825;28;20421;-74
2021/05/20 12:24:51;;;;;;;18.05;11.40;;;20.80;54.50;;;;;;5012378;28;20045;-75
2021/05/20 12:27:41;;;;;;;15.63;10.60;;;21.00;53.90;;;;;;4996356;28;20079;-76
2021/05/20 12:30:22;;;;;;;18.30;10.88;;;21.20;52.30;;;;;;5027785;28;20049;-77
2021/05/20 12:32:55;;;;;;;18.65;11.63;;;21.30;52.00;;;;;;5026404;28;20052;-78
2021/05/20 12:35:26;;;;;;;19.42;11.75;;;21.60;52.00;;;;;;5014584;28;20490;-75
2021/05/20 12:37:55;;;;;;;17.75;11.82;;;21.70;51.40;;;;;;5028017;28;20067;-74
2021/05/20 12:40:29;;;;;;;17.05;12.38;;;21.80;51.10;;;;;;5029643;28;20041;-77
2021/05/20 12:43:15;;;;;;;16.38;11.35;;;21.80;49.80;;;;;;5016971;28;20091;-76
2021/05/20 12:45:59;;;;;;;18.90;14.23;;;21.90;50.10;;;;;;5037246;28;20535;-78
2021/05/20 12:48:39;;;;;;;20.00;15.68;;;21.80;47.60;;;;;;5033834;28;20532;-78
2021/05/20 12:51:23;;;;;;;22.75;16.67;;;21.60;48.20;;;;;;5031942;28;20084;-74